sensor_id;sensor_type;location;lat;lon;timestamp;pressure;altitude;pressure_sealevel;temperature;humidity
76586;BME280;65251;51.022;13.736;2023-08-20T00:00:17;99675.41;;;23.88;68.47
76586;BME280;65251;51.022;13.736;2023-08-20T00:00:49;99674.59;;;23.88;68.35
76586;BME280;65251;51.022;13.736;2023-08-20T00:01:24;99671.34;;;23.86;68.62
76586;BME280;65251;51.022;13.736;2023-08-20T00:01:57;99667.81;;;23.85;68.69
76586;BME280;65251;51.022;13.736;2023-08-20T00:02:32;99669.72;;;23.85;68.52
76586;BME280;65251;51.022;13.736;2023-08-20T00:03:10;99670.53;;;23.85;67.91
76586;BME280;65251;51.022;13.736;2023-08-20T00:03:42;99664.25;;;23.85;68.59
76586;BME280;65251;51.022;13.736;2023-08-20T00:04:14;99667.00;;;23.85;68.09
76586;BME280;65251;51.022;13.736;2023-08-20T00:04:46;99657.72;;;23.86;68.19
76586;BME280;65251;51.022;13.736;2023-08-20T00:05:19;99659.91;;;23.84;67.90
76586;BME280;65251;51.022;13.736;2023-08-20T00:05:51;99661.53;;;23.85;67.64
76586;BME280;65251;51.022;13.736;2023-08-20T00:06:23;99662.09;;;23.82;68.27
76586;BME280;65251;51.022;13.736;2023-08-20T00:06:54;99662.63;;;23.84;68.64
76586;BME280;65251;51.022;13.736;2023-08-20T00:07:26;99662.63;;;23.84;67.82
76586;BME280;65251;51.022;13.736;2023-08-20T00:07:58;99659.91;;;23.84;68.61
76586;BME280;65251;51.022;13.736;2023-08-20T00:08:29;99658.81;;;23.85;68.29
76586;BME280;65251;51.022;13.736;2023-08-20T00:08:59;99661.53;;;23.85;68.37
76586;BME280;65251;51.022;13.736;2023-08-20T00:09:30;99653.09;;;23.86;68.20
76586;BME280;65251;51.022;13.736;2023-08-20T00:10:04;99657.72;;;23.86;68.85
76586;BME280;65251;51.022;13.736;2023-08-20T00:10:35;99657.44;;;23.87;68.52
76586;BME280;65251;51.022;13.736;2023-08-20T00:11:08;99661.81;;;23.88;68.38
76586;BME280;65251;51.022;13.736;2023-08-20T00:11:40;99659.06;;;23.88;68.04
76586;BME280;65251;51.022;13.736;2023-08-20T00:12:11;99660.72;;;23.89;68.54
76586;BME280;65251;51.022;13.736;2023-08-20T00:12:41;99663.16;;;23.91;68.46
76586;BME280;65251;51.022;13.736;2023-08-20T00:13:12;99651.44;;;23.90;67.73
76586;BME280;65251;51.022;13.736;2023-08-20T00:13:44;99656.88;;;23.90;67.61
76586;BME280;65251;51.022;13.736;2023-08-20T00:14:16;99659.59;;;23.90;67.92
76586;BME280;65251;51.022;13.736;2023-08-20T00:14:55;99651.97;;;23.92;68.54
76586;BME280;65251;51.022;13.736;2023-08-20T00:15:27;99662.06;;;23.92;68.77
76586;BME280;65251;51.022;13.736;2023-08-20T00:15:59;99655.78;;;23.91;68.39
76586;BME280;65251;51.022;13.736;2023-08-20T00:16:30;99659.06;;;23.93;68.36
76586;BME280;65251;51.022;13.736;2023-08-20T00:17:01;99655.50;;;23.93;68.42
76586;BME280;65251;51.022;13.736;2023-08-20T00:17:33;99651.69;;;23.94;67.32
76586;BME280;65251;51.022;13.736;2023-08-20T00:18:04;99657.69;;;23.96;68.32
76586;BME280;65251;51.022;13.736;2023-08-20T00:18:37;99656.88;;;23.95;67.57
76586;BME280;65251;51.022;13.736;2023-08-20T00:19:09;99650.59;;;23.95;67.69
76586;BME280;65251;51.022;13.736;2023-08-20T00:19:41;99659.31;;;23.97;67.94
76586;BME280;65251;51.022;13.736;2023-08-20T00:20:14;99659.59;;;23.95;67.34
76586;BME280;65251;51.022;13.736;2023-08-20T00:20:47;99659.31;;;23.97;67.54
76586;BME280;65251;51.022;13.736;2023-08-20T00:21:18;99651.94;;;23.97;67.86
76586;BME280;65251;51.022;13.736;2023-08-20T00:21:49;99651.94;;;23.97;67.53
76586;BME280;65251;51.022;13.736;2023-08-20T00:22:21;99659.81;;;23.99;67.28
76586;BME280;65251;51.022;13.736;2023-08-20T00:22:53;99656.00;;;24.00;67.97
76586;BME280;65251;51.022;13.736;2023-08-20T00:23:25;99654.91;;;24.01;67.33
76586;BME280;65251;51.022;13.736;2023-08-20T00:23:56;99656.28;;;23.98;67.41
76586;BME280;65251;51.022;13.736;2023-08-20T00:24:29;99658.44;;;24.01;67.55
76586;BME280;65251;51.022;13.736;2023-08-20T00:25:00;99656.53;;;24.02;66.86
76586;BME280;65251;51.022;13.736;2023-08-20T00:25:31;99654.06;;;24.00;66.85
76586;BME280;65251;51.022;13.736;2023-08-20T00:26:03;99654.91;;;24.01;67.41
76586;BME280;65251;51.022;13.736;2023-08-20T00:26:36;99656.53;;;24.02;66.56
76586;BME280;65251;51.022;13.736;2023-08-20T00:27:07;99660.34;;;24.01;67.35
76586;BME280;65251;51.022;13.736;2023-08-20T00:27:38;99650.03;;;23.98;66.16
76586;BME280;65251;51.022;13.736;2023-08-20T00:28:09;99659.59;;;23.95;66.42
76586;BME280;65251;51.022;13.736;2023-08-20T00:28:41;99654.66;;;23.97;66.22
76586;BME280;65251;51.022;13.736;2023-08-20T00:29:11;99660.13;;;23.97;67.13
76586;BME280;65251;51.022;13.736;2023-08-20T00:29:42;99657.91;;;23.99;66.54
76586;BME280;65251;51.022;13.736;2023-08-20T00:30:13;99651.94;;;23.97;66.92
76586;BME280;65251;51.022;13.736;2023-08-20T00:30:45;99656.28;;;23.98;66.43
76586;BME280;65251;51.022;13.736;2023-08-20T00:31:15;99647.59;;;23.96;66.52
76586;BME280;65251;51.022;13.736;2023-08-20T00:31:46;99652.75;;;23.98;66.63
76586;BME280;65251;51.022;13.736;2023-08-20T00:32:17;99651.13;;;23.97;66.08
76586;BME280;65251;51.022;13.736;2023-08-20T00:32:48;99655.50;;;23.98;66.32
76586;BME280;65251;51.022;13.736;2023-08-20T00:33:19;99660.41;;;23.96;66.87
76586;BME280;65251;51.022;13.736;2023-08-20T00:33:50;99666.66;;;23.96;66.71
76586;BME280;65251;51.022;13.736;2023-08-20T00:34:21;99656.03;;;23.95;66.20
76586;BME280;65251;51.022;13.736;2023-08-20T00:34:52;99656.31;;;23.93;66.44
76586;BME280;65251;51.022;13.736;2023-08-20T00:35:24;99654.41;;;23.94;67.21
76586;BME280;65251;51.022;13.736;2023-08-20T00:35:54;99656.03;;;23.95;67.15
76586;BME280;65251;51.022;13.736;2023-08-20T00:36:25;99662.84;;;23.97;66.41
76586;BME280;65251;51.022;13.736;2023-08-20T00:36:57;99657.69;;;23.96;66.87
76586;BME280;65251;51.022;13.736;2023-08-20T00:37:28;99651.41;;;23.95;66.69
76586;BME280;65251;51.022;13.736;2023-08-20T00:37:59;99654.13;;;23.95;65.90
76586;BME280;65251;51.022;13.736;2023-08-20T00:38:30;99663.13;;;23.96;66.38
76586;BME280;65251;51.022;13.736;2023-08-20T00:39:02;99654.94;;;23.96;66.23
76586;BME280;65251;51.022;13.736;2023-08-20T00:39:33;99660.41;;;23.96;66.33
76586;BME280;65251;51.022;13.736;2023-08-20T00:40:05;99662.31;;;23.95;66.98
76586;BME280;65251;51.022;13.736;2023-08-20T00:40:36;99658.50;;;23.96;66.85
76586;BME280;65251;51.022;13.736;2023-08-20T00:41:08;99656.59;;;23.97;66.77
76586;BME280;65251;51.022;13.736;2023-08-20T00:41:40;99658.78;;;23.95;65.95
76586;BME280;65251;51.022;13.736;2023-08-20T00:42:10;99663.13;;;23.96;65.90
76586;BME280;65251;51.022;13.736;2023-08-20T00:42:44;99661.78;;;23.93;66.82
76586;BME280;65251;51.022;13.736;2023-08-20T00:43:14;99656.31;;;23.93;66.06
76586;BME280;65251;51.022;13.736;2023-08-20T00:43:46;99656.31;;;23.93;66.13
76586;BME280;65251;51.022;13.736;2023-08-20T00:44:17;99656.59;;;23.92;66.85
76586;BME280;65251;51.022;13.736;2023-08-20T00:44:48;99663.16;;;23.91;66.30
76586;BME280;65251;51.022;13.736;2023-08-20T00:45:18;99657.16;;;23.89;66.23
76586;BME280;65251;51.022;13.736;2023-08-20T00:45:50;99662.34;;;23.90;66.77
76586;BME280;65251;51.022;13.736;2023-08-20T00:46:21;99662.06;;;23.92;66.75
76586;BME280;65251;51.022;13.736;2023-08-20T00:46:52;99664.00;;;23.86;67.06
76586;BME280;65251;51.022;13.736;2023-08-20T00:47:23;99657.44;;;23.87;66.81
76586;BME280;65251;51.022;13.736;2023-08-20T00:47:56;99669.72;;;23.85;66.33
76586;BME280;65251;51.022;13.736;2023-08-20T00:48:27;99661.28;;;23.81;67.25
76586;BME280;65251;51.022;13.736;2023-08-20T00:48:58;99658.03;;;23.79;66.72
76586;BME280;65251;51.022;13.736;2023-08-20T00:49:29;99662.97;;;23.77;66.87
76586;BME280;65251;51.022;13.736;2023-08-20T00:50:02;99652.66;;;23.74;67.17
76586;BME280;65251;51.022;13.736;2023-08-20T00:50:36;99660.53;;;23.76;66.84
76586;BME280;65251;51.022;13.736;2023-08-20T00:51:06;99657.28;;;23.74;67.59
76586;BME280;65251;51.022;13.736;2023-08-20T00:51:39;99658.09;;;23.74;67.73
76586;BME280;65251;51.022;13.736;2023-08-20T00:52:11;99668.44;;;23.72;67.42
76586;BME280;65251;51.022;13.736;2023-08-20T00:52:43;99658.38;;;23.73;67.57
76586;BME280;65251;51.022;13.736;2023-08-20T00:53:14;99655.13;;;23.70;68.22
76586;BME280;65251;51.022;13.736;2023-08-20T00:53:46;99657.84;;;23.70;67.45
76586;BME280;65251;51.022;13.736;2023-08-20T00:54:17;99657.56;;;23.72;67.70
76586;BME280;65251;51.022;13.736;2023-08-20T00:54:49;99655.66;;;23.73;68.19
76586;BME280;65251;51.022;13.736;2023-08-20T00:55:20;99662.44;;;23.75;67.28
76586;BME280;65251;51.022;13.736;2023-08-20T00:55:52;99655.91;;;23.76;67.13
76586;BME280;65251;51.022;13.736;2023-08-20T00:56:23;99656.19;;;23.75;68.17
76586;BME280;65251;51.022;13.736;2023-08-20T00:56:55;99655.91;;;23.76;67.35
76586;BME280;65251;51.022;13.736;2023-08-20T00:57:26;99658.91;;;23.75;68.04
76586;BME280;65251;51.022;13.736;2023-08-20T00:57:59;99665.44;;;23.74;67.36
76586;BME280;65251;51.022;13.736;2023-08-20T00:58:30;99665.16;;;23.75;67.87
76586;BME280;65251;51.022;13.736;2023-08-20T00:59:02;99660.53;;;23.76;67.77
76586;BME280;65251;51.022;13.736;2023-08-20T00:59:33;99660.53;;;23.76;67.30
76586;BME280;65251;51.022;13.736;2023-08-20T01:00:07;99657.81;;;23.76;68.00
76586;BME280;65251;51.022;13.736;2023-08-20T01:00:39;99657.81;;;23.76;67.26
76586;BME280;65251;51.022;13.736;2023-08-20T01:01:10;99656.72;;;23.77;67.60
76586;BME280;65251;51.022;13.736;2023-08-20T01:01:42;99659.44;;;23.77;67.78
76586;BME280;65251;51.022;13.736;2023-08-20T01:02:13;99657.81;;;23.76;67.88
76586;BME280;65251;51.022;13.736;2023-08-20T01:02:44;99664.06;;;23.76;68.19
76586;BME280;65251;51.022;13.736;2023-08-20T01:03:15;99659.72;;;23.75;67.85
76586;BME280;65251;51.022;13.736;2023-08-20T01:03:47;99661.34;;;23.76;67.69
76586;BME280;65251;51.022;13.736;2023-08-20T01:04:17;99662.97;;;23.77;67.92
76586;BME280;65251;51.022;13.736;2023-08-20T01:04:48;99661.84;;;23.78;67.20
76586;BME280;65251;51.022;13.736;2023-08-20T01:05:20;99663.78;;;23.78;66.93
76586;BME280;65251;51.022;13.736;2023-08-20T01:06:02;99662.66;;;23.79;67.65
76586;BME280;65251;51.022;13.736;2023-08-20T01:06:46;99670.84;;;23.79;66.67
76586;BME280;65251;51.022;13.736;2023-08-20T01:07:27;99667.00;;;23.80;67.37
76586;BME280;65251;51.022;13.736;2023-08-20T01:08:14;99668.91;;;23.79;66.67
76586;BME280;65251;51.022;13.736;2023-08-20T01:08:56;99668.41;;;23.77;66.84
76586;BME280;65251;51.022;13.736;2023-08-20T01:09:40;99670.84;;;23.79;66.92
76586;BME280;65251;51.022;13.736;2023-08-20T01:10:23;99663.25;;;23.76;67.00
76586;BME280;65251;51.022;13.736;2023-08-20T01:11:00;99670.53;;;23.80;66.98
76586;BME280;65251;51.022;13.736;2023-08-20T01:11:38;99675.19;;;23.80;66.43
76586;BME280;65251;51.022;13.736;2023-08-20T01:12:19;99680.34;;;23.81;66.67
76586;BME280;65251;51.022;13.736;2023-08-20T01:12:51;99673.81;;;23.82;67.13
76586;BME280;65251;51.022;13.736;2023-08-20T01:13:22;99673.53;;;23.84;67.15
76586;BME280;65251;51.022;13.736;2023-08-20T01:13:54;99671.91;;;23.83;67.22
76586;BME280;65251;51.022;13.736;2023-08-20T01:14:25;99679.50;;;23.86;66.68
76586;BME280;65251;51.022;13.736;2023-08-20T01:14:56;99671.34;;;23.86;66.51
76586;BME280;65251;51.022;13.736;2023-08-20T01:15:27;99675.13;;;23.90;66.13
76586;BME280;65251;51.022;13.736;2023-08-20T01:15:59;99675.94;;;23.90;66.49
76586;BME280;65251;51.022;13.736;2023-08-20T01:16:30;99675.66;;;23.92;66.43
76586;BME280;65251;51.022;13.736;2023-08-20T01:17:01;99674.03;;;23.91;66.79
76586;BME280;65251;51.022;13.736;2023-08-20T01:17:31;99681.09;;;23.92;66.71
76586;BME280;65251;51.022;13.736;2023-08-20T01:18:03;99682.72;;;23.93;66.48
76586;BME280;65251;51.022;13.736;2023-08-20T01:18:34;99678.09;;;23.93;65.73
76586;BME280;65251;51.022;13.736;2023-08-20T01:19:07;99682.19;;;23.96;66.01
76586;BME280;65251;51.022;13.736;2023-08-20T01:19:41;99680.53;;;23.95;65.55
76586;BME280;65251;51.022;13.736;2023-08-20T01:20:13;99680.53;;;23.95;66.03
76586;BME280;65251;51.022;13.736;2023-08-20T01:20:51;99678.91;;;23.94;66.73
76586;BME280;65251;51.022;13.736;2023-08-20T01:21:35;99682.47;;;23.94;66.75
76586;BME280;65251;51.022;13.736;2023-08-20T01:22:41;99685.19;;;23.89;67.29
76586;BME280;65251;51.022;13.736;2023-08-20T01:24:41;99683.59;;;23.83;66.94
76586;BME280;65251;51.022;13.736;2023-08-20T01:25:28;99690.13;;;23.82;67.46
76586;BME280;65251;51.022;13.736;2023-08-20T01:26:21;99685.25;;;23.79;66.93
76586;BME280;65251;51.022;13.736;2023-08-20T01:27:18;99686.06;;;23.80;67.62
76586;BME280;65251;51.022;13.736;2023-08-20T01:28:40;99688.28;;;23.78;66.89
76586;BME280;65251;51.022;13.736;2023-08-20T01:29:12;99686.06;;;23.80;66.82
76586;BME280;65251;51.022;13.736;2023-08-20T01:29:43;99683.34;;;23.80;67.63
76586;BME280;65251;51.022;13.736;2023-08-20T01:30:15;99690.41;;;23.81;67.86
76586;BME280;65251;51.022;13.736;2023-08-20T01:30:46;99683.13;;;23.76;68.02
76586;BME280;65251;51.022;13.736;2023-08-20T01:31:20;99690.19;;;23.77;66.93
76586;BME280;65251;51.022;13.736;2023-08-20T01:31:53;99691.84;;;23.73;67.19
76586;BME280;65251;51.022;13.736;2023-08-20T01:32:25;99697.84;;;23.70;67.63
76586;BME280;65251;51.022;13.736;2023-08-20T01:32:57;99696.22;;;23.69;67.24
76586;BME280;65251;51.022;13.736;2023-08-20T01:33:29;99693.75;;;23.67;67.14
76586;BME280;65251;51.022;13.736;2023-08-20T01:34:02;99688.31;;;23.67;67.35
76586;BME280;65251;51.022;13.736;2023-08-20T01:34:33;99693.50;;;23.69;67.34
76586;BME280;65251;51.022;13.736;2023-08-20T01:35:05;99699.75;;;23.69;66.93
76586;BME280;65251;51.022;13.736;2023-08-20T01:35:36;99699.75;;;23.69;67.00
76586;BME280;65251;51.022;13.736;2023-08-20T01:36:08;99703.81;;;23.72;67.31
76586;BME280;65251;51.022;13.736;2023-08-20T01:36:40;99697.56;;;23.72;66.89
76586;BME280;65251;51.022;13.736;2023-08-20T01:37:10;99705.44;;;23.73;67.24
76586;BME280;65251;51.022;13.736;2023-08-20T01:37:41;99702.44;;;23.75;67.21
76586;BME280;65251;51.022;13.736;2023-08-20T01:38:13;99701.34;;;23.76;66.74
76586;BME280;65251;51.022;13.736;2023-08-20T01:38:44;99699.16;;;23.78;66.24
76586;BME280;65251;51.022;13.736;2023-08-20T01:39:14;99698.56;;;23.81;66.24
76586;BME280;65251;51.022;13.736;2023-08-20T01:39:45;99709.19;;;23.82;66.21
76586;BME280;65251;51.022;13.736;2023-08-20T01:40:16;99703.19;;;23.85;65.97
76586;BME280;65251;51.022;13.736;2023-08-20T01:40:48;99699.09;;;23.88;66.43
76586;BME280;65251;51.022;13.736;2023-08-20T01:41:19;99707.78;;;23.90;65.72
76586;BME280;65251;51.022;13.736;2023-08-20T01:41:49;99703.69;;;23.92;65.27
76586;BME280;65251;51.022;13.736;2023-08-20T01:42:20;99709.69;;;23.94;65.98
76586;BME280;65251;51.022;13.736;2023-08-20T01:42:52;99708.31;;;23.97;65.46
76586;BME280;65251;51.022;13.736;2023-08-20T01:43:23;99715.38;;;23.98;65.01
76586;BME280;65251;51.022;13.736;2023-08-20T01:43:55;99711.25;;;24.00;65.06
76586;BME280;65251;51.022;13.736;2023-08-20T01:44:25;99709.34;;;24.01;64.92
76586;BME280;65251;51.022;13.736;2023-08-20T01:44:57;99709.06;;;24.02;65.51
76586;BME280;65251;51.022;13.736;2023-08-20T01:45:28;99713.94;;;24.05;65.07
76586;BME280;65251;51.022;13.736;2023-08-20T01:45:59;99710.94;;;24.07;65.13
76586;BME280;65251;51.022;13.736;2023-08-20T01:46:30;99714.47;;;24.08;64.57
76586;BME280;65251;51.022;13.736;2023-08-20T01:47:01;99716.91;;;24.09;64.87
76586;BME280;65251;51.022;13.736;2023-08-20T01:47:32;99721.00;;;24.12;64.45
76586;BME280;65251;51.022;13.736;2023-08-20T01:48:03;99720.19;;;24.11;65.24
76586;BME280;65251;51.022;13.736;2023-08-20T01:48:35;99715.00;;;24.15;64.42
76586;BME280;65251;51.022;13.736;2023-08-20T01:49:06;99710.34;;;24.15;64.54
76586;BME280;65251;51.022;13.736;2023-08-20T01:49:37;99704.63;;;24.17;64.40
76586;BME280;65251;51.022;13.736;2023-08-20T01:50:09;99716.34;;;24.17;64.56
76586;BME280;65251;51.022;13.736;2023-08-20T01:50:40;99716.34;;;24.17;64.68
76586;BME280;65251;51.022;13.736;2023-08-20T01:51:11;99720.66;;;24.18;64.26
76586;BME280;65251;51.022;13.736;2023-08-20T01:51:41;99711.16;;;24.16;63.96
76586;BME280;65251;51.022;13.736;2023-08-20T01:52:13;99719.06;;;24.17;64.10
76586;BME280;65251;51.022;13.736;2023-08-20T01:52:44;99716.84;;;24.19;64.00
76586;BME280;65251;51.022;13.736;2023-08-20T01:53:15;99712.50;;;24.18;64.44
76586;BME280;65251;51.022;13.736;2023-08-20T01:53:45;99719.28;;;24.21;64.36
76586;BME280;65251;51.022;13.736;2023-08-20T01:54:16;99715.75;;;24.20;64.16
76586;BME280;65251;51.022;13.736;2023-08-20T01:54:49;99717.38;;;24.21;63.91
76586;BME280;65251;51.022;13.736;2023-08-20T01:55:19;99720.91;;;24.22;64.60
76586;BME280;65251;51.022;13.736;2023-08-20T01:55:50;99717.91;;;24.23;64.03
76586;BME280;65251;51.022;13.736;2023-08-20T01:56:22;99718.75;;;24.24;64.14
76586;BME280;65251;51.022;13.736;2023-08-20T01:56:52;99722.53;;;24.23;64.59
76586;BME280;65251;51.022;13.736;2023-08-20T01:57:23;99718.75;;;24.24;65.22
76586;BME280;65251;51.022;13.736;2023-08-20T01:57:54;99714.13;;;24.24;64.41
76586;BME280;65251;51.022;13.736;2023-08-20T01:58:25;99714.94;;;24.25;64.57
76586;BME280;65251;51.022;13.736;2023-08-20T01:58:58;99720.38;;;24.25;64.22
76586;BME280;65251;51.022;13.736;2023-08-20T01:59:28;99723.09;;;24.25;64.51
76586;BME280;65251;51.022;13.736;2023-08-20T01:59:59;99721.19;;;24.25;65.50
76586;BME280;65251;51.022;13.736;2023-08-20T02:00:31;99721.19;;;24.25;65.19
76586;BME280;65251;51.022;13.736;2023-08-20T02:01:04;99720.91;;;24.22;65.48
76586;BME280;65251;51.022;13.736;2023-08-20T02:01:34;99710.28;;;24.20;65.38
76586;BME280;65251;51.022;13.736;2023-08-20T02:02:05;99710.56;;;24.19;65.32
76586;BME280;65251;51.022;13.736;2023-08-20T02:02:37;99719.28;;;24.21;64.53
76586;BME280;65251;51.022;13.736;2023-08-20T02:03:08;99718.47;;;24.20;64.25
76586;BME280;65251;51.022;13.736;2023-08-20T02:03:39;99715.19;;;24.23;64.29
76586;BME280;65251;51.022;13.736;2023-08-20T02:04:09;99718.75;;;24.24;63.66
76586;BME280;65251;51.022;13.736;2023-08-20T02:04:41;99714.13;;;24.24;63.54
76586;BME280;65251;51.022;13.736;2023-08-20T02:05:12;99716.56;;;24.26;63.26
76586;BME280;65251;51.022;13.736;2023-08-20T02:05:43;99716.28;;;24.27;63.03
76586;BME280;65251;51.022;13.736;2023-08-20T02:06:13;99722.53;;;24.28;63.15
76586;BME280;65251;51.022;13.736;2023-08-20T02:06:45;99725.78;;;24.30;63.80
76586;BME280;65251;51.022;13.736;2023-08-20T02:07:16;99720.34;;;24.30;64.62
76586;BME280;65251;51.022;13.736;2023-08-20T02:07:47;99723.59;;;24.32;63.72
76586;BME280;65251;51.022;13.736;2023-08-20T02:08:18;99717.34;;;24.31;62.72
76586;BME280;65251;51.022;13.736;2023-08-20T02:08:49;99719.22;;;24.36;61.29
76586;BME280;65251;51.022;13.736;2023-08-20T02:09:20;99714.59;;;24.36;62.00
76586;BME280;65251;51.022;13.736;2023-08-20T02:09:51;99721.66;;;24.37;62.87
76586;BME280;65251;51.022;13.736;2023-08-20T02:10:22;99721.13;;;24.35;64.15
76586;BME280;65251;51.022;13.736;2023-08-20T02:11:00;99720.03;;;24.36;64.25
76586;BME280;65251;51.022;13.736;2023-08-20T02:11:30;99711.88;;;24.36;63.40
76586;BME280;65251;51.022;13.736;2023-08-20T02:12:06;99713.19;;;24.39;62.30
76586;BME280;65251;51.022;13.736;2023-08-20T02:12:38;99725.69;;;24.40;61.96
76586;BME280;65251;51.022;13.736;2023-08-20T02:13:08;99722.41;;;24.43;62.60
76586;BME280;65251;51.022;13.736;2023-08-20T02:13:39;99721.59;;;24.43;62.51
76586;BME280;65251;51.022;13.736;2023-08-20T02:14:12;99721.31;;;24.44;62.21
76586;BME280;65251;51.022;13.736;2023-08-20T02:14:43;99722.94;;;24.45;61.75
76586;BME280;65251;51.022;13.736;2023-08-20T02:15:14;99725.09;;;24.48;61.43
76586;BME280;65251;51.022;13.736;2023-08-20T02:15:44;99728.09;;;24.47;61.91
76586;BME280;65251;51.022;13.736;2023-08-20T02:16:16;99718.03;;;24.47;61.62
76586;BME280;65251;51.022;13.736;2023-08-20T02:16:47;99727.81;;;24.48;61.85
76586;BME280;65251;51.022;13.736;2023-08-20T02:17:18;99725.09;;;24.48;62.02
76586;BME280;65251;51.022;13.736;2023-08-20T02:17:49;99728.66;;;24.49;61.81
76586;BME280;65251;51.022;13.736;2023-08-20T02:18:20;99726.72;;;24.49;60.85
76586;BME280;65251;51.022;13.736;2023-08-20T02:18:51;99727.53;;;24.50;60.88
76586;BME280;65251;51.022;13.736;2023-08-20T02:19:22;99726.72;;;24.49;61.18
76586;BME280;65251;51.022;13.736;2023-08-20T02:19:53;99721.81;;;24.51;61.60
76586;BME280;65251;51.022;13.736;2023-08-20T02:20:26;99728.34;;;24.50;61.15
76586;BME280;65251;51.022;13.736;2023-08-20T02:20:57;99722.09;;;24.50;61.70
76586;BME280;65251;51.022;13.736;2023-08-20T02:21:28;99728.34;;;24.50;61.65
76586;BME280;65251;51.022;13.736;2023-08-20T02:21:58;99729.47;;;24.49;62.71
76586;BME280;65251;51.022;13.736;2023-08-20T02:22:30;99722.38;;;24.48;62.41
76586;BME280;65251;51.022;13.736;2023-08-20T02:23:01;99733.28;;;24.48;61.81
76586;BME280;65251;51.022;13.736;2023-08-20T02:23:32;99726.72;;;24.49;61.17
76586;BME280;65251;51.022;13.736;2023-08-20T02:24:03;99737.63;;;24.49;61.38
76586;BME280;65251;51.022;13.736;2023-08-20T02:24:34;99736.81;;;24.49;61.38
76586;BME280;65251;51.022;13.736;2023-08-20T02:25:06;99733.81;;;24.50;61.01
76586;BME280;65251;51.022;13.736;2023-08-20T02:25:37;99734.34;;;24.52;61.46
76586;BME280;65251;51.022;13.736;2023-08-20T02:26:07;99735.69;;;24.55;60.67
76586;BME280;65251;51.022;13.736;2023-08-20T02:26:39;99742.47;;;24.57;60.82
76586;BME280;65251;51.022;13.736;2023-08-20T02:27:10;99729.13;;;24.56;60.51
76586;BME280;65251;51.022;13.736;2023-08-20T02:27:40;99738.13;;;24.56;62.10
76586;BME280;65251;51.022;13.736;2023-08-20T02:28:11;99735.41;;;24.56;62.00
76586;BME280;65251;51.022;13.736;2023-08-20T02:28:43;99738.13;;;24.56;61.83
76586;BME280;65251;51.022;13.736;2023-08-20T02:29:15;99744.09;;;24.58;61.37
76586;BME280;65251;51.022;13.736;2023-08-20T02:29:45;99745.22;;;24.57;61.20
76586;BME280;65251;51.022;13.736;2023-08-20T02:30:16;99734.59;;;24.56;61.95
76586;BME280;65251;51.022;13.736;2023-08-20T02:30:48;99739.50;;;24.54;62.98
76586;BME280;65251;51.022;13.736;2023-08-20T02:31:19;99744.69;;;24.55;62.42
76586;BME280;65251;51.022;13.736;2023-08-20T02:31:49;99737.84;;;24.58;61.25
76586;BME280;65251;51.022;13.736;2023-08-20T02:32:20;99740.56;;;24.58;61.70
76586;BME280;65251;51.022;13.736;2023-08-20T02:32:52;99742.75;;;24.56;62.76
76586;BME280;65251;51.022;13.736;2023-08-20T02:33:22;99746.59;;;24.55;62.10
76586;BME280;65251;51.022;13.736;2023-08-20T02:33:53;99744.69;;;24.55;61.87
76586;BME280;65251;51.022;13.736;2023-08-20T02:34:25;99738.69;;;24.53;62.15
76586;BME280;65251;51.022;13.736;2023-08-20T02:34:56;99735.16;;;24.53;62.11
76586;BME280;65251;51.022;13.736;2023-08-20T02:35:26;99740.59;;;24.53;63.19
76586;BME280;65251;51.022;13.736;2023-08-20T02:36:01;99742.50;;;24.52;63.05
76586;BME280;65251;51.022;13.736;2023-08-20T02:36:32;99738.16;;;24.51;63.15
76586;BME280;65251;51.022;13.736;2023-08-20T02:37:03;99738.16;;;24.51;63.09
76586;BME280;65251;51.022;13.736;2023-08-20T02:37:34;99737.34;;;24.51;62.71
76586;BME280;65251;51.022;13.736;2023-08-20T02:38:06;99734.09;;;24.49;63.16
76586;BME280;65251;51.022;13.736;2023-08-20T02:38:39;99737.34;;;24.51;63.38
76586;BME280;65251;51.022;13.736;2023-08-20T02:39:10;99741.16;;;24.50;63.33
76586;BME280;65251;51.022;13.736;2023-08-20T02:39:41;99740.34;;;24.49;63.41
76586;BME280;65251;51.022;13.736;2023-08-20T02:40:13;99746.09;;;24.48;63.46
76586;BME280;65251;51.022;13.736;2023-08-20T02:40:44;99744.47;;;24.47;63.57
76586;BME280;65251;51.022;13.736;2023-08-20T02:41:15;99745.56;;;24.46;63.76
76586;BME280;65251;51.022;13.736;2023-08-20T02:41:46;99740.38;;;24.44;63.01
76586;BME280;65251;51.022;13.736;2023-08-20T02:42:17;99743.13;;;24.44;63.27
76586;BME280;65251;51.022;13.736;2023-08-20T02:42:48;99739.84;;;24.42;63.31
76586;BME280;65251;51.022;13.736;2023-08-20T02:43:19;99737.13;;;24.42;62.96
76586;BME280;65251;51.022;13.736;2023-08-20T02:43:50;99738.22;;;24.41;62.95
76586;BME280;65251;51.022;13.736;2023-08-20T02:44:23;99740.13;;;24.41;63.52
76586;BME280;65251;51.022;13.736;2023-08-20T02:44:53;99739.31;;;24.40;63.43
76586;BME280;65251;51.022;13.736;2023-08-20T02:45:24;99738.50;;;24.39;63.17
76586;BME280;65251;51.022;13.736;2023-08-20T02:45:55;99735.78;;;24.39;63.11
76586;BME280;65251;51.022;13.736;2023-08-20T02:46:27;99738.78;;;24.38;63.21
76586;BME280;65251;51.022;13.736;2023-08-20T02:46:58;99736.38;;;24.36;63.98
76586;BME280;65251;51.022;13.736;2023-08-20T02:47:29;99738.00;;;24.37;63.96
76586;BME280;65251;51.022;13.736;2023-08-20T02:48:00;99738.56;;;24.34;63.82
76586;BME280;65251;51.022;13.736;2023-08-20T02:48:31;99733.94;;;24.35;64.30
76586;BME280;65251;51.022;13.736;2023-08-20T02:49:02;99733.13;;;24.34;64.17
76586;BME280;65251;51.022;13.736;2023-08-20T02:49:33;99736.66;;;24.35;64.69
76586;BME280;65251;51.022;13.736;2023-08-20T02:50:04;99733.13;;;24.34;64.42
76586;BME280;65251;51.022;13.736;2023-08-20T02:50:36;99729.88;;;24.32;64.94